sensor_id;sensor_type;location;lat;lon;timestamp;pressure;altitude;pressure_sealevel;temperature;humidity
21109;BME280;10712;52.944;9.098;2024-03-25T00:01:16;100117.69;;;13.26;73.27
21109;BME280;10712;52.944;9.098;2024-03-25T00:03:41;100122.31;;;13.24;73.25
21109;BME280;10712;52.944;9.098;2024-03-25T00:06:07;100122.31;;;13.24;73.29
21109;BME280;10712;52.944;9.098;2024-03-25T00:08:33;100125.22;;;13.21;73.59
21109;BME280;10712;52.944;9.098;2024-03-25T00:10:58;100133.50;;;13.18;73.33
21109;BME280;10712;52.944;9.098;2024-03-25T00:13:24;100131.19;;;13.25;73.06
21109;BME280;10712;52.944;9.098;2024-03-25T00:15:50;100136.53;;;13.25;72.91
21109;BME280;10712;52.944;9.098;2024-03-25T00:18:16;100150.75;;;13.14;73.31
21109;BME280;10712;52.944;9.098;2024-03-25T00:20:42;100153.94;;;13.19;73.13
21109;BME280;10712;52.944;9.098;2024-03-25T00:23:07;100142.75;;;13.25;72.73
21109;BME280;10712;52.944;9.098;2024-03-25T00:25:34;100151.94;;;13.10;73.06
21109;BME280;10712;52.944;9.098;2024-03-25T00:27:59;100150.88;;;13.24;72.90
21109;BME280;10712;52.944;9.098;2024-03-25T00:30:25;100148.09;;;13.25;72.97
21109;BME280;10712;52.944;9.098;2024-03-25T00:32:51;100156.00;;;13.27;72.80
21109;BME280;10712;52.944;9.098;2024-03-25T00:35:17;100165.47;;;13.20;72.90
21109;BME280;10712;52.944;9.098;2024-03-25T00:37:43;100157.56;;;13.29;72.79
21109;BME280;10712;52.944;9.098;2024-03-25T00:40:11;100159.06;;;13.33;72.62
21109;BME280;10712;52.944;9.098;2024-03-25T00:42:37;100163.88;;;13.28;72.55
21109;BME280;10712;52.944;9.098;2024-03-25T00:45:04;100161.09;;;13.30;72.75
21109;BME280;10712;52.944;9.098;2024-03-25T00:47:32;100178.00;;;13.30;72.92
21109;BME280;10712;52.944;9.098;2024-03-25T00:49:57;100176.28;;;13.29;72.88
21109;BME280;10712;52.944;9.098;2024-03-25T00:52:23;100172.66;;;13.30;73.06
21109;BME280;10712;52.944;9.098;2024-03-25T00:54:49;100172.91;;;13.27;73.03
21109;BME280;10712;52.944;9.098;2024-03-25T00:57:15;100184.56;;;13.26;73.08
21109;BME280;10712;52.944;9.098;2024-03-25T00:59:41;100185.28;;;13.28;73.27
21109;BME280;10712;52.944;9.098;2024-03-25T01:02:07;100189.19;;;13.24;73.16
21109;BME280;10712;52.944;9.098;2024-03-25T01:04:34;100192.59;;;13.26;73.26
21109;BME280;10712;52.944;9.098;2024-03-25T01:07:00;100190.91;;;13.25;73.33
21109;BME280;10712;52.944;9.098;2024-03-25T01:09:25;100189.19;;;13.24;73.42
21109;BME280;10712;52.944;9.098;2024-03-25T01:11:52;100197.22;;;13.24;73.49
21109;BME280;10712;52.944;9.098;2024-03-25T01:14:18;100205.47;;;13.21;73.65
21109;BME280;10712;52.944;9.098;2024-03-25T01:16:44;100205.47;;;13.21;73.79
21109;BME280;10712;52.944;9.098;2024-03-25T01:19:10;100209.13;;;13.20;73.80
21109;BME280;10712;52.944;9.098;2024-03-25T01:21:36;100204.50;;;13.22;74.22
21109;BME280;10712;52.944;9.098;2024-03-25T01:24:01;100203.03;;;13.18;74.53
21109;BME280;10712;52.944;9.098;2024-03-25T01:26:27;100200.09;;;13.21;74.28
21109;BME280;10712;52.944;9.098;2024-03-25T01:28:54;100200.84;;;13.23;74.19
21109;BME280;10712;52.944;9.098;2024-03-25T01:31:20;100196.47;;;13.22;74.43
21109;BME280;10712;52.944;9.098;2024-03-25T01:33:46;100196.00;;;13.28;74.32
21109;BME280;10712;52.944;9.098;2024-03-25T01:36:11;100201.59;;;13.25;74.47
21109;BME280;10712;52.944;9.098;2024-03-25T01:38:45;100198.06;;;13.25;74.38
21109;BME280;10712;52.944;9.098;2024-03-25T01:41:13;100202.66;;;13.23;74.43
21109;BME280;10712;52.944;9.098;2024-03-25T01:43:40;100213.16;;;13.26;74.56
21109;BME280;10712;52.944;9.098;2024-03-25T01:46:07;100210.81;;;13.21;74.52
21109;BME280;10712;52.944;9.098;2024-03-25T01:48:33;100211.81;;;13.20;74.64
21109;BME280;10712;52.944;9.098;2024-03-25T01:51:01;100217.16;;;13.20;74.50
21109;BME280;10712;52.944;9.098;2024-03-25T01:53:29;100218.13;;;13.19;74.48
21109;BME280;10712;52.944;9.098;2024-03-25T01:55:56;100215.56;;;13.18;74.48
21109;BME280;10712;52.944;9.098;2024-03-25T01:58:24;100219.84;;;13.20;74.58
21109;BME280;10712;52.944;9.098;2024-03-25T02:00:54;100218.34;;;13.16;74.51
21109;BME280;10712;52.944;9.098;2024-03-25T02:03:21;100228.44;;;13.13;74.54
21109;BME280;10712;52.944;9.098;2024-03-25T02:05:52;100234.41;;;13.16;74.24
21109;BME280;10712;52.944;9.098;2024-03-25T02:08:22;100239.75;;;13.16;74.29
21109;BME280;10712;52.944;9.098;2024-03-25T02:10:48;100233.88;;;13.11;74.44
21109;BME280;10712;52.944;9.098;2024-03-25T02:13:15;100237.41;;;13.12;74.14
21109;BME280;10712;52.944;9.098;2024-03-25T02:15:41;100230.34;;;13.11;74.09
21109;BME280;10712;52.944;9.098;2024-03-25T02:18:07;100234.84;;;13.10;74.08
21109;BME280;10712;52.944;9.098;2024-03-25T02:20:33;100239.22;;;13.11;74.20
21109;BME280;10712;52.944;9.098;2024-03-25T02:22:59;100245.53;;;13.10;74.09
21109;BME280;10712;52.944;9.098;2024-03-25T02:25:25;100240.53;;;13.06;73.96
21109;BME280;10712;52.944;9.098;2024-03-25T02:27:51;100245.03;;;13.05;73.97
21109;BME280;10712;52.944;9.098;2024-03-25T02:30:17;100253.28;;;13.02;73.83
21109;BME280;10712;52.944;9.098;2024-03-25T02:32:43;100246.47;;;12.98;73.67
21109;BME280;10712;52.944;9.098;2024-03-25T02:35:16;100246.47;;;12.98;73.62
21109;BME280;10712;52.944;9.098;2024-03-25T02:37:42;100252.28;;;12.92;73.57
21109;BME280;10712;52.944;9.098;2024-03-25T02:40:09;100248.88;;;12.90;73.69
21109;BME280;10712;52.944;9.098;2024-03-25T02:42:38;100248.13;;;12.88;73.57
21109;BME280;10712;52.944;9.098;2024-03-25T02:45:06;100249.09;;;12.87;73.39
21109;BME280;10712;52.944;9.098;2024-03-25T02:47:32;100251.53;;;12.90;73.26
21109;BME280;10712;52.944;9.098;2024-03-25T02:49:58;100259.06;;;12.85;73.40
21109;BME280;10712;52.944;9.098;2024-03-25T02:52:24;100261.50;;;12.88;73.39
21109;BME280;10712;52.944;9.098;2024-03-25T02:54:50;100257.84;;;12.89;73.47
21109;BME280;10712;52.944;9.098;2024-03-25T02:57:16;100263.94;;;12.91;73.43
21109;BME280;10712;52.944;9.098;2024-03-25T02:59:41;100259.94;;;12.96;73.01
21109;BME280;10712;52.944;9.098;2024-03-25T03:02:07;100265.91;;;13.00;72.78
21109;BME280;10712;52.944;9.098;2024-03-25T03:04:33;100271.97;;;12.91;72.88
21109;BME280;10712;52.944;9.098;2024-03-25T03:06:59;100274.19;;;12.97;72.93
21109;BME280;10712;52.944;9.098;2024-03-25T03:09:25;100276.59;;;13.00;72.93
21109;BME280;10712;52.944;9.098;2024-03-25T03:11:51;100282.19;;;12.97;73.03
21109;BME280;10712;52.944;9.098;2024-03-25T03:14:17;100292.66;;;13.00;72.99
21109;BME280;10712;52.944;9.098;2024-03-25T03:16:43;100292.91;;;12.97;73.05
21109;BME280;10712;52.944;9.098;2024-03-25T03:19:08;100292.91;;;12.97;73.42
21109;BME280;10712;52.944;9.098;2024-03-25T03:21:34;100295.31;;;13.00;73.39
21109;BME280;10712;52.944;9.098;2024-03-25T03:24:00;100303.13;;;13.03;73.25
21109;BME280;10712;52.944;9.098;2024-03-25T03:26:26;100299.69;;;13.01;73.54
21109;BME280;10712;52.944;9.098;2024-03-25T03:28:54;100300.56;;;13.01;73.42
21109;BME280;10712;52.944;9.098;2024-03-25T03:31:20;100302.91;;;13.06;73.41
21109;BME280;10712;52.944;9.098;2024-03-25T03:33:50;100310.41;;;13.01;73.39
21109;BME280;10712;52.944;9.098;2024-03-25T03:36:18;100312.09;;;13.02;73.63
21109;BME280;10712;52.944;9.098;2024-03-25T03:38:44;100318.94;;;13.06;73.65
21109;BME280;10712;52.944;9.098;2024-03-25T03:41:10;100314.41;;;13.19;73.46
21109;BME280;10712;52.944;9.098;2024-03-25T03:43:36;100311.66;;;13.08;73.63
21109;BME280;10712;52.944;9.098;2024-03-25T03:46:03;100311.91;;;13.05;73.78
21109;BME280;10712;52.944;9.098;2024-03-25T03:48:30;100309.53;;;13.13;73.75
21109;BME280;10712;52.944;9.098;2024-03-25T03:50:56;100310.19;;;13.04;73.79
21109;BME280;10712;52.944;9.098;2024-03-25T03:53:22;100315.53;;;13.04;74.19
21109;BME280;10712;52.944;9.098;2024-03-25T03:58:21;100317.00;;;13.08;73.75
21109;BME280;10712;52.944;9.098;2024-03-25T04:00:47;100314.03;;;13.00;74.07
21109;BME280;10712;52.944;9.098;2024-03-25T04:03:13;100306.38;;;12.95;74.09
21109;BME280;10712;52.944;9.098;2024-03-25T04:05:39;100311.81;;;12.94;74.25
21109;BME280;10712;52.944;9.098;2024-03-25T04:08:05;100312.09;;;13.02;74.08
21109;BME280;10712;52.944;9.098;2024-03-25T04:10:31;100304.19;;;13.00;74.16
21109;BME280;10712;52.944;9.098;2024-03-25T04:12:57;100310.88;;;12.95;74.33
21109;BME280;10712;52.944;9.098;2024-03-25T04:15:23;100303.59;;;12.97;74.20
21109;BME280;10712;52.944;9.098;2024-03-25T04:17:49;100310.53;;;12.99;74.12
21109;BME280;10712;52.944;9.098;2024-03-25T04:20:16;100308.44;;;12.92;74.28
21109;BME280;10712;52.944;9.098;2024-03-25T04:22:43;100317.63;;;12.88;74.20
21109;BME280;10712;52.944;9.098;2024-03-25T04:25:10;100320.31;;;12.88;74.29
21109;BME280;10712;52.944;9.098;2024-03-25T04:27:43;100320.19;;;12.89;74.46
21109;BME280;10712;52.944;9.098;2024-03-25T04:30:10;100327.63;;;12.86;74.32
21109;BME280;10712;52.944;9.098;2024-03-25T04:32:40;100330.09;;;13.00;74.63
21109;BME280;10712;52.944;9.098;2024-03-25T04:35:07;100326.91;;;12.95;74.55
21109;BME280;10712;52.944;9.098;2024-03-25T04:37:34;100324.50;;;13.03;74.50
21109;BME280;10712;52.944;9.098;2024-03-25T04:40:03;100327.28;;;13.01;74.64
21109;BME280;10712;52.944;9.098;2024-03-25T04:42:29;100335.97;;;13.05;74.75
21109;BME280;10712;52.944;9.098;2024-03-25T04:44:55;100334.31;;;13.15;74.69
21109;BME280;10712;52.944;9.098;2024-03-25T04:47:21;100340.34;;;13.06;74.77
21109;BME280;10712;52.944;9.098;2024-03-25T04:49:47;100337.13;;;13.01;74.83
21109;BME280;10712;52.944;9.098;2024-03-25T04:52:14;100343.81;;;12.95;75.04
21109;BME280;10712;52.944;9.098;2024-03-25T04:54:43;100350.25;;;12.93;75.08
21109;BME280;10712;52.944;9.098;2024-03-25T04:57:09;100356.41;;;12.93;75.01
21109;BME280;10712;52.944;9.098;2024-03-25T04:59:35;100356.81;;;13.00;74.90
21109;BME280;10712;52.944;9.098;2024-03-25T05:02:01;100355.81;;;12.90;74.95
21109;BME280;10712;52.944;9.098;2024-03-25T05:04:27;100360.31;;;12.89;75.19
21109;BME280;10712;52.944;9.098;2024-03-25T05:06:53;100365.09;;;12.97;74.78
21109;BME280;10712;52.944;9.098;2024-03-25T05:09:19;100363.63;;;12.93;74.88
21109;BME280;10712;52.944;9.098;2024-03-25T05:11:46;100363.84;;;12.90;74.87
21109;BME280;10712;52.944;9.098;2024-03-25T05:14:11;100373.78;;;12.88;75.12
21109;BME280;10712;52.944;9.098;2024-03-25T05:16:37;100367.25;;;12.92;74.82
21109;BME280;10712;52.944;9.098;2024-03-25T05:19:04;100372.06;;;12.87;75.06
21109;BME280;10712;52.944;9.098;2024-03-25T05:21:33;100382.34;;;12.93;74.80
21109;BME280;10712;52.944;9.098;2024-03-25T05:23:59;100379.97;;;12.88;74.97
21109;BME280;10712;52.944;9.098;2024-03-25T05:26:25;100378.66;;;12.94;74.98
21109;BME280;10712;52.944;9.098;2024-03-25T05:28:55;100382.53;;;12.90;74.68
21109;BME280;10712;52.944;9.098;2024-03-25T05:31:21;100384.47;;;12.88;74.93
21109;BME280;10712;52.944;9.098;2024-03-25T05:33:47;100383.50;;;12.89;74.95
21109;BME280;10712;52.944;9.098;2024-03-25T05:36:13;100388.91;;;13.00;74.67
21109;BME280;10712;52.944;9.098;2024-03-25T05:38:40;100391.31;;;12.92;74.95
21109;BME280;10712;52.944;9.098;2024-03-25T05:41:08;100393.66;;;12.96;74.81
21109;BME280;10712;52.944;9.098;2024-03-25T05:43:33;100399.09;;;12.95;75.01
21109;BME280;10712;52.944;9.098;2024-03-25T05:45:59;100395.97;;;13.01;74.74
21109;BME280;10712;52.944;9.098;2024-03-25T05:48:25;100397.47;;;13.05;74.58
21109;BME280;10712;52.944;9.098;2024-03-25T05:51:05;100401.09;;;13.04;74.62
21109;BME280;10712;52.944;9.098;2024-03-25T05:53:31;100395.97;;;13.14;74.19
21109;BME280;10712;52.944;9.098;2024-03-25T05:55:58;100397.00;;;13.11;74.44
21109;BME280;10712;52.944;9.098;2024-03-25T05:58:27;100396.78;;;13.14;74.12
21109;BME280;10712;52.944;9.098;2024-03-25T06:00:53;100404.28;;;13.09;74.20
21109;BME280;10712;52.944;9.098;2024-03-25T06:03:20;100400.13;;;13.05;74.20
21109;BME280;10712;52.944;9.098;2024-03-25T06:05:46;100398.50;;;13.15;73.72
21109;BME280;10712;52.944;9.098;2024-03-25T06:08:12;100400.84;;;13.20;73.68
21109;BME280;10712;52.944;9.098;2024-03-25T06:10:50;100391.34;;;13.16;73.70
21109;BME280;10712;52.944;9.098;2024-03-25T06:13:20;100404.06;;;13.12;74.28
21109;BME280;10712;52.944;9.098;2024-03-25T06:15:46;100400.22;;;13.16;73.88
21109;BME280;10712;52.944;9.098;2024-03-25T06:18:12;100405.13;;;13.10;74.07
21109;BME280;10712;52.944;9.098;2024-03-25T06:20:38;100414.75;;;13.12;74.15
21109;BME280;10712;52.944;9.098;2024-03-25T06:23:04;100419.03;;;13.15;74.23
21109;BME280;10712;52.944;9.098;2024-03-25T06:25:30;100424.13;;;13.30;73.92
21109;BME280;10712;52.944;9.098;2024-03-25T06:27:56;100421.81;;;13.26;74.10
21109;BME280;10712;52.944;9.098;2024-03-25T06:30:23;100433.34;;;13.26;74.03
21109;BME280;10712;52.944;9.098;2024-03-25T06:33:07;100434.31;;;13.25;74.11
21109;BME280;10712;52.944;9.098;2024-03-25T06:35:52;100432.66;;;13.35;73.66
21109;BME280;10712;52.944;9.098;2024-03-25T06:38:18;100433.69;;;13.46;73.36
21109;BME280;10712;52.944;9.098;2024-03-25T06:40:45;100436.09;;;13.49;73.35
21109;BME280;10712;52.944;9.098;2024-03-25T06:43:12;100435.84;;;13.40;73.50
21109;BME280;10712;52.944;9.098;2024-03-25T06:45:37;100438.84;;;13.36;73.68
21109;BME280;10712;52.944;9.098;2024-03-25T06:48:04;100439.09;;;13.33;73.39
21109;BME280;10712;52.944;9.098;2024-03-25T06:50:30;100446.78;;;13.37;73.69
21109;BME280;10712;52.944;9.098;2024-03-25T06:52:56;100450.09;;;13.41;73.48
21109;BME280;10712;52.944;9.098;2024-03-25T06:55:22;100450.41;;;13.36;73.47
21109;BME280;10712;52.944;9.098;2024-03-25T06:57:53;100460.03;;;13.39;73.61
21109;BME280;10712;52.944;9.098;2024-03-25T07:00:19;100458.91;;;13.54;72.93
21109;BME280;10712;52.944;9.098;2024-03-25T07:02:48;100465.69;;;13.47;73.00
21109;BME280;10712;52.944;9.098;2024-03-25T07:05:14;100465.53;;;13.49;73.13
21109;BME280;10712;52.944;9.098;2024-03-25T07:07:39;100466.28;;;13.51;73.06
21109;BME280;10712;52.944;9.098;2024-03-25T07:10:06;100461.28;;;13.46;73.01
21109;BME280;10712;52.944;9.098;2024-03-25T07:12:32;100467.81;;;13.66;72.36
21109;BME280;10712;52.944;9.098;2024-03-25T07:14:57;100459.75;;;13.55;72.24
21109;BME280;10712;52.944;9.098;2024-03-25T07:17:23;100465.34;;;13.52;72.54
21109;BME280;10712;52.944;9.098;2024-03-25T07:19:51;100460.72;;;13.54;72.41
21109;BME280;10712;52.944;9.098;2024-03-25T07:22:18;100470.47;;;13.55;72.63
21109;BME280;10712;52.944;9.098;2024-03-25T07:24:43;100468.50;;;13.57;72.61
21109;BME280;10712;52.944;9.098;2024-03-25T07:27:10;100468.28;;;13.60;72.46
21109;BME280;10712;52.944;9.098;2024-03-25T07:29:37;100472.97;;;13.69;72.35
21109;BME280;10712;52.944;9.098;2024-03-25T07:32:03;100465.91;;;13.68;72.12
21109;BME280;10712;52.944;9.098;2024-03-25T07:34:29;100476.13;;;13.74;72.24
21109;BME280;10712;52.944;9.098;2024-03-25T07:36:54;100475.88;;;13.77;72.31
21109;BME280;10712;52.944;9.098;2024-03-25T07:39:20;100479.31;;;13.79;72.25
21109;BME280;10712;52.944;9.098;2024-03-25T07:41:49;100479.19;;;13.80;72.41
21109;BME280;10712;52.944;9.098;2024-03-25T07:44:15;100484.19;;;13.85;72.32
21109;BME280;10712;52.944;9.098;2024-03-25T07:46:41;100487.63;;;13.87;72.08
21109;BME280;10712;52.944;9.098;2024-03-25T07:49:07;100491.03;;;13.89;72.10
21109;BME280;10712;52.944;9.098;2024-03-25T07:51:34;100492.03;;;13.99;71.85
21109;BME280;10712;52.944;9.098;2024-03-25T07:54:01;100489.75;;;14.06;71.89
21109;BME280;10712;52.944;9.098;2024-03-25T07:56:29;100489.84;;;14.04;71.68
21109;BME280;10712;52.944;9.098;2024-03-25T07:58:56;100499.16;;;14.23;71.23
21109;BME280;10712;52.944;9.098;2024-03-25T08:01:21;100498.41;;;14.09;70.78
21109;BME280;10712;52.944;9.098;2024-03-25T08:03:47;100492.78;;;14.12;70.76
21109;BME280;10712;52.944;9.098;2024-03-25T08:06:13;100501.31;;;14.17;70.66
21109;BME280;10712;52.944;9.098;2024-03-25T08:08:38;100500.25;;;14.20;70.57
21109;BME280;10712;52.944;9.098;2024-03-25T08:11:04;100494.78;;;14.22;70.49
21109;BME280;10712;52.944;9.098;2024-03-25T08:13:30;100501.47;;;14.27;70.07
21109;BME280;10712;52.944;9.098;2024-03-25T08:15:56;100498.69;;;14.29;69.83
21109;BME280;10712;52.944;9.098;2024-03-25T08:18:21;100507.41;;;14.43;69.66
21109;BME280;10712;52.944;9.098;2024-03-25T08:20:47;100506.28;;;14.46;69.06
21109;BME280;10712;52.944;9.098;2024-03-25T08:23:13;100505.06;;;14.39;68.63
21109;BME280;10712;52.944;9.098;2024-03-25T08:25:39;100509.34;;;14.41;68.89
21109;BME280;10712;52.944;9.098;2024-03-25T08:28:05;100503.00;;;14.53;68.84
21109;BME280;10712;52.944;9.098;2024-03-25T08:30:31;100513.25;;;14.59;68.74
21109;BME280;10712;52.944;9.098;2024-03-25T08:32:57;100514.13;;;14.71;69.09
21109;BME280;10712;52.944;9.098;2024-03-25T08:35:22;100517.53;;;14.84;68.70
21109;BME280;10712;52.944;9.098;2024-03-25T08:37:48;100519.00;;;14.88;68.61
21109;BME280;10712;52.944;9.098;2024-03-25T08:40:14;100523.16;;;14.92;68.23
21109;BME280;10712;52.944;9.098;2024-03-25T08:42:40;100525.56;;;14.95;67.60
21109;BME280;10712;52.944;9.098;2024-03-25T08:45:06;100515.59;;;14.97;67.22
21109;BME280;10712;52.944;9.098;2024-03-25T08:47:32;100512.16;;;15.07;66.99
21109;BME280;10712;52.944;9.098;2024-03-25T08:49:58;100514.25;;;15.14;67.15
21109;BME280;10712;52.944;9.098;2024-03-25T08:52:25;100514.81;;;15.18;66.99
21109;BME280;10712;52.944;9.098;2024-03-25T08:54:51;100517.97;;;15.23;67.13
21109;BME280;10712;52.944;9.098;2024-03-25T08:57:16;100514.81;;;15.18;66.27
21109;BME280;10712;52.944;9.098;2024-03-25T08:59:42;100509.69;;;15.15;66.34
21109;BME280;10712;52.944;9.098;2024-03-25T09:02:08;100514.09;;;15.16;66.40
21109;BME280;10712;52.944;9.098;2024-03-25T09:04:34;100507.50;;;15.20;66.07
21109;BME280;10712;52.944;9.098;2024-03-25T09:07:00;100522.66;;;15.21;66.01
21109;BME280;10712;52.944;9.098;2024-03-25T09:09:26;100521.06;;;15.18;65.74
21109;BME280;10712;52.944;9.098;2024-03-25T09:12:10;100525.78;;;15.15;65.62
21109;BME280;10712;52.944;9.098;2024-03-25T09:14:36;100537.28;;;15.17;65.89
21109;BME280;10712;52.944;9.098;2024-03-25T09:17:04;100533.72;;;15.16;66.27
21109;BME280;10712;52.944;9.098;2024-03-25T09:19:30;100529.22;;;15.17;66.03
21109;BME280;10712;52.944;9.098;2024-03-25T09:21:56;100526.81;;;15.14;65.46
21109;BME280;10712;52.944;9.098;2024-03-25T09:24:22;100533.13;;;15.13;65.58
21109;BME280;10712;52.944;9.098;2024-03-25T09:26:50;100536.41;;;15.27;65.44
21109;BME280;10712;52.944;9.098;2024-03-25T09:29:16;100534.72;;;15.26;64.80
21109;BME280;10712;52.944;9.098;2024-03-25T09:31:41;100535.56;;;15.27;64.54
21109;BME280;10712;52.944;9.098;2024-03-25T09:34:08;100530.28;;;15.36;63.83
21109;BME280;10712;52.944;9.098;2024-03-25T09:36:34;100538.72;;;15.32;64.34
21109;BME280;10712;52.944;9.098;2024-03-25T09:38:59;100537.63;;;15.34;64.16
21109;BME280;10712;52.944;9.098;2024-03-25T09:41:28;100539.81;;;15.41;64.08
21109;BME280;10712;52.944;9.098;2024-03-25T09:43:55;100537.97;;;15.41;63.87
21109;BME280;10712;52.944;9.098;2024-03-25T09:46:23;100543.34;;;15.41;63.94
21109;BME280;10712;52.944;9.098;2024-03-25T09:48:53;100546.03;;;15.41;63.99
21109;BME280;10712;52.944;9.098;2024-03-25T09:51:20;100540.16;;;15.36;63.71
21109;BME280;10712;52.944;9.098;2024-03-25T09:53:46;100543.59;;;15.38;64.20
21109;BME280;10712;52.944;9.098;2024-03-25T09:56:13;100550.41;;;15.42;63.91
21109;BME280;10712;52.944;9.098;2024-03-25T09:58:40;100551.59;;;15.49;64.12
21109;BME280;10712;52.944;9.098;2024-03-25T10:01:07;100547.69;;;15.64;63.11
21109;BME280;10712;52.944;9.098;2024-03-25T10:03:33;100546.25;;;15.60;63.20
21109;BME280;10712;52.944;9.098;2024-03-25T10:05:58;100547.06;;;15.72;63.34
21109;BME280;10712;52.944;9.098;2024-03-25T10:08:24;100545.47;;;15.81;63.59
21109;BME280;10712;52.944;9.098;2024-03-25T10:10:52;100547.44;;;15.99;63.40
21109;BME280;10712;52.944;9.098;2024-03-25T10:13:24;100551.44;;;16.05;63.37
21109;BME280;10712;52.944;9.098;2024-03-25T10:15:50;100543.38;;;16.05;62.96
21109;BME280;10712;52.944;9.098;2024-03-25T10:18:17;100546.59;;;15.99;62.36
21109;BME280;10712;52.944;9.098;2024-03-25T10:20:50;100546.13;;;15.94;62.21
21109;BME280;10712;52.944;9.098;2024-03-25T10:23:23;100549.34;;;15.88;62.49
21109;BME280;10712;52.944;9.098;2024-03-25T10:25:53;100548.88;;;15.83;62.50
21109;BME280;10712;52.944;9.098;2024-03-25T10:28:19;100553.63;;;15.79;62.47
21109;BME280;10712;52.944;9.098;2024-03-25T10:30:45;100553.75;;;15.77;62.58
21109;BME280;10712;52.944;9.098;2024-03-25T10:33:11;100554.94;;;15.85;61.89
21109;BME280;10712;52.944;9.098;2024-03-25T10:35:38;100551.94;;;15.78;61.61
21109;BME280;10712;52.944;9.098;2024-03-25T10:38:10;100553.28;;;15.72;61.73
21109;BME280;10712;52.944;9.098;2024-03-25T10:40:40;100554.28;;;15.71;61.61
21109;BME280;10712;52.944;9.098;2024-03-25T10:43:10;100555.00;;;15.73;61.08
21109;BME280;10712;52.944;9.098;2024-03-25T10:45:47;100552.22;;;15.64;60.40
21109;BME280;10712;52.944;9.098;2024-03-25T10:48:27;100555.13;;;15.72;60.58
21109;BME280;10712;52.944;9.098;2024-03-25T10:50:59;100553.28;;;15.72;61.82
21109;BME280;10712;52.944;9.098;2024-03-25T10:53:28;100551.75;;;15.91;61.83
21109;BME280;10712;52.944;9.098;2024-03-25T10:55:55;100547.84;;;15.95;61.70
21109;BME280;10712;52.944;9.098;2024-03-25T10:58:23;100548.19;;;16.01;62.37
21109;BME280;10712;52.944;9.098;2024-03-25T11:00:52;100551.94;;;16.10;62.41
21109;BME280;10712;52.944;9.098;2024-03-25T11:03:23;100544.06;;;16.18;62.75
21109;BME280;10712;52.944;9.098;2024-03-25T11:05:51;100550.38;;;16.28;62.13
21109;BME280;10712;52.944;9.098;2024-03-25T11:08:17;100548.41;;;16.30;62.15
21109;BME280;10712;52.944;9.098;2024-03-25T11:10:47;100549.31;;;16.40;61.86
21109;BME280;10712;52.944;9.098;2024-03-25T11:13:14;100538.84;;;16.37;60.87
21109;BME280;10712;52.944;9.098;2024-03-25T11:15:48;100548.00;;;16.55;59.60
21109;BME280;10712;52.944;9.098;2024-03-25T11:18:22;100542.22;;;16.39;59.69
21109;BME280;10712;52.944;9.098;2024-03-25T11:21:02;100544.41;;;16.45;60.01
21109;BME280;10712;52.944;9.098;2024-03-25T11:23:41;100538.84;;;16.37;60.05
21109;BME280;10712;52.944;9.098;2024-03-25T11:26:24;100537.34;;;16.44;60.16
21109;BME280;10712;52.944;9.098;2024-03-25T11:28:50;100536.81;;;16.50;60.77
21109;BME280;10712;52.944;9.098;2024-03-25T11:31:21;100536.16;;;16.58;60.96
21109;BME280;10712;52.944;9.098;2024-03-25T11:33:47;100529.66;;;16.61;60.86
21109;BME280;10712;52.944;9.098;2024-03-25T11:36:13;100523.50;;;16.70;61.44
21109;BME280;10712;52.944;9.098;2024-03-25T11:38:40;100525.50;;;16.77;61.31
21109;BME280;10712;52.944;9.098;2024-03-25T11:41:10;100522.72;;;16.88;60.88
21109;BME280;10712;52.944;9.098;2024-03-25T11:43:36;100524.03;;;16.94;60.62
21109;BME280;10712;52.944;9.098;2024-03-25T11:46:03;100519.91;;;16.90;60.33
21109;BME280;10712;52.944;9.098;2024-03-25T11:48:29;100513.84;;;16.98;59.71
21109;BME280;10712;52.944;9.098;2024-03-25T11:50:55;100516.94;;;16.93;58.42
21109;BME280;10712;52.944;9.098;2024-03-25T11:53:21;100505.72;;;16.88;58.63
21109;BME280;10712;52.944;9.098;2024-03-25T11:55:47;100509.13;;;16.90;59.23
21109;BME280;10712;52.944;9.098;2024-03-25T11:58:14;100502.34;;;16.86;58.91
21109;BME280;10712;52.944;9.098;2024-03-25T12:00:47;100500.31;;;16.78;58.99
21109;BME280;10712;52.944;9.098;2024-03-25T12:03:18;100494.09;;;16.78;59.14
21109;BME280;10712;52.944;9.098;2024-03-25T12:05:44;100493.78;;;16.81;59.42
21109;BME280;10712;52.944;9.098;2024-03-25T12:08:10;100495.25;;;16.85;60.08
21109;BME280;10712;52.944;9.098;2024-03-25T12:10:38;100495.25;;;16.85;59.71
21109;BME280;10712;52.944;9.098;2024-03-25T12:13:23;100503.56;;;16.82;59.30
21109;BME280;10712;52.944;9.098;2024-03-25T12:15:51;100497.50;;;16.80;59.27
21109;BME280;10712;52.944;9.098;2024-03-25T12:18:18;100501.75;;;16.82;59.48
21109;BME280;10712;52.944;9.098;2024-03-25T12:20:47;100487.47;;;16.91;58.82
21109;BME280;10712;52.944;9.098;2024-03-25T12:23:13;100489.66;;;17.07;57.65
21109;BME280;10712;52.944;9.098;2024-03-25T12:25:40;100491.91;;;17.02;57.82
21109;BME280;10712;52.944;9.098;2024-03-25T12:28:09;100481.47;;;17.18;57.87
21109;BME280;10712;52.944;9.098;2024-03-25T12:30:53;100482.44;;;17.17;56.63
21109;BME280;10712;52.944;9.098;2024-03-25T12:33:23;100479.19;;;17.14;57.51
21109;BME280;10712;52.944;9.098;2024-03-25T12:35:51;100475.53;;;17.15;58.08
21109;BME280;10712;52.944;9.098;2024-03-25T12:38:28;100471.53;;;17.09;58.22
21109;BME280;10712;52.944;9.098;2024-03-25T12:41:23;100473.81;;;17.14;58.40
21109;BME280;10712;52.944;9.098;2024-03-25T12:43:51;100466.16;;;17.19;57.85
21109;BME280;10712;52.944;9.098;2024-03-25T12:46:17;100467.28;;;17.16;57.84
21109;BME280;10712;52.944;9.098;2024-03-25T12:48:43;100461.09;;;17.25;57.53
21109;BME280;10712;52.944;9.098;2024-03-25T12:51:14;100462.63;;;17.18;57.10
21109;BME280;10712;52.944;9.098;2024-03-25T12:53:41;100457.81;;;17.12;57.20